DLH8177 SBFL-SBKP
Flight info
| Callsign | DLH8177 |
|---|---|
| Flight time | 0h 54m |
| Altitude | 37000 |
| Route | ILVOR UZ69 UMDOR DCT EDRAT |
| Aircraft | A346/H-SDE2E3FGHIJ3J4J5M1RWXY/LB1D1 |
Departure
| Time | 2026-04-15 21:29 |
|---|---|
| Airport | Hercílio Luz International Airport (SBFL) |
Arrival
| Time | 2026-04-15 22:23 |
|---|---|
| Airport | Viracopos International Airport (SBKP) |
| Time | Latitude | Longitude | Altitude | Speed | Heading |
|---|---|---|---|---|---|
| 2026-04-15 20:53 | -27.67140 | -48.54733 | 43 ft | 0 kts | 212° |
| 2026-04-15 21:12 | -27.67135 | -48.54729 | 42 ft | 2 kts | 212° |
| 2026-04-15 21:13 | -27.67125 | -48.54723 | 42 ft | 0 kts | 212° |
| 2026-04-15 21:13 | -27.67121 | -48.54720 | 42 ft | 2 kts | 209° |
| 2026-04-15 21:13 | -27.67106 | -48.54715 | 42 ft | 2 kts | 178° |
| 2026-04-15 21:13 | -27.67092 | -48.54718 | 42 ft | 2 kts | 154° |
| 2026-04-15 21:14 | -27.67079 | -48.54727 | 42 ft | 2 kts | 131° |
| 2026-04-15 21:14 | -27.67075 | -48.54734 | 42 ft | 1 kts | 120° |
| 2026-04-15 21:14 | -27.67073 | -48.54737 | 42 ft | 0 kts | 121° |
| 2026-04-15 21:21 | -27.67076 | -48.54733 | 42 ft | 2 kts | 121° |
| 2026-04-15 21:21 | -27.67093 | -48.54704 | 42 ft | 6 kts | 126° |
| 2026-04-15 21:21 | -27.67123 | -48.54649 | 42 ft | 9 kts | 102° |
| 2026-04-15 21:21 | -27.67088 | -48.54590 | 41 ft | 10 kts | 15° |
| 2026-04-15 21:22 | -27.67026 | -48.54633 | 41 ft | 12 kts | 302° |
| 2026-04-15 21:22 | -27.66974 | -48.54729 | 42 ft | 15 kts | 301° |
| 2026-04-15 21:22 | -27.66927 | -48.54815 | 42 ft | 7 kts | 301° |
| 2026-04-15 21:22 | -27.66892 | -48.54879 | 42 ft | 11 kts | 301° |
| 2026-04-15 21:23 | -27.66846 | -48.54966 | 43 ft | 14 kts | 301° |
| 2026-04-15 21:23 | -27.66790 | -48.55069 | 44 ft | 15 kts | 302° |
| 2026-04-15 21:23 | -27.66726 | -48.55120 | 45 ft | 0 kts | 342° |
| 2026-04-15 21:26 | -27.66713 | -48.55125 | 45 ft | 3 kts | 342° |
| 2026-04-15 21:27 | -27.66678 | -48.55138 | 46 ft | 7 kts | 342° |
| 2026-04-15 21:27 | -27.66622 | -48.55135 | 45 ft | 9 kts | 23° |
| 2026-04-15 21:27 | -27.66594 | -48.55092 | 45 ft | 4 kts | 112° |
| 2026-04-15 21:27 | -27.66605 | -48.55068 | 44 ft | 0 kts | 120° |
| 2026-04-15 21:28 | -27.66675 | -48.54935 | 43 ft | 62 kts | 121° |
| 2026-04-15 21:28 | -27.67069 | -48.54196 | 42 ft | 150 kts | 121° |
| 2026-04-15 21:28 | -27.67717 | -48.52999 | 338 ft | 192 kts | 120° |
| 2026-04-15 21:29 | -27.68340 | -48.51717 | 1272 ft | 192 kts | 115° |
| 2026-04-15 21:29 | -27.68991 | -48.50435 | 2256 ft | 187 kts | 115° |
| 2026-04-15 21:29 | -27.69160 | -48.49058 | 2903 ft | 181 kts | 66° |
| 2026-04-15 21:29 | -27.68388 | -48.47942 | 3427 ft | 190 kts | 40° |
| 2026-04-15 21:30 | -27.67280 | -48.46978 | 3810 ft | 214 kts | 36° |
| 2026-04-15 21:30 | -27.66005 | -48.45951 | 4249 ft | 237 kts | 37° |
| 2026-04-15 21:30 | -27.64669 | -48.44771 | 4951 ft | 250 kts | 34° |
| 2026-04-15 21:30 | -27.63259 | -48.43790 | 5607 ft | 234 kts | 30° |
| 2026-04-15 21:31 | -27.60452 | -48.41914 | 5994 ft | 233 kts | 29° |
| 2026-04-15 21:31 | -27.59043 | -48.40971 | 5995 ft | 233 kts | 30° |
| 2026-04-15 21:32 | -27.56270 | -48.39072 | 5997 ft | 233 kts | 31° |
| 2026-04-15 21:32 | -27.54859 | -48.38161 | 5993 ft | 232 kts | 20° |
| 2026-04-15 21:32 | -27.53269 | -48.37935 | 6033 ft | 238 kts | 353° |
| 2026-04-15 21:32 | -27.51562 | -48.38260 | 6433 ft | 259 kts | 351° |
| 2026-04-15 21:33 | -27.49733 | -48.38608 | 7105 ft | 272 kts | 351° |
| 2026-04-15 21:33 | -27.47842 | -48.38959 | 7988 ft | 276 kts | 351° |
| 2026-04-15 21:33 | -27.45960 | -48.39305 | 8818 ft | 280 kts | 351° |
| 2026-04-15 21:33 | -27.44017 | -48.39660 | 9639 ft | 284 kts | 351° |
| 2026-04-15 21:34 | -27.42063 | -48.40017 | 10418 ft | 289 kts | 351° |
| 2026-04-15 21:34 | -27.40020 | -48.40390 | 10929 ft | 304 kts | 351° |
| 2026-04-15 21:34 | -27.37896 | -48.40775 | 11312 ft | 322 kts | 352° |
| 2026-04-15 21:34 | -27.35585 | -48.41193 | 11676 ft | 340 kts | 352° |
| 2026-04-15 21:35 | -27.33185 | -48.41628 | 12032 ft | 357 kts | 352° |
| 2026-04-15 21:35 | -27.30699 | -48.42077 | 12635 ft | 366 kts | 352° |
| 2026-04-15 21:35 | -27.28132 | -48.42541 | 13393 ft | 369 kts | 352° |
| 2026-04-15 21:35 | -27.25683 | -48.42983 | 13878 ft | 348 kts | 352° |
| 2026-04-15 21:36 | -27.23289 | -48.43415 | 13894 ft | 355 kts | 352° |
| 2026-04-15 21:36 | -27.20776 | -48.43869 | 14219 ft | 371 kts | 352° |
| 2026-04-15 21:36 | -27.18194 | -48.44336 | 14836 ft | 378 kts | 351° |
| 2026-04-15 21:36 | -27.15595 | -48.44807 | 15510 ft | 382 kts | 351° |
| 2026-04-15 21:37 | -27.12948 | -48.45287 | 16211 ft | 386 kts | 350° |
| 2026-04-15 21:37 | -27.10318 | -48.45764 | 16866 ft | 389 kts | 350° |
| 2026-04-15 21:37 | -27.07574 | -48.46263 | 17487 ft | 394 kts | 350° |
| 2026-04-15 21:37 | -27.04860 | -48.46757 | 18103 ft | 399 kts | 349° |
| 2026-04-15 21:38 | -27.02125 | -48.47255 | 18755 ft | 402 kts | 349° |
| 2026-04-15 21:38 | -26.99346 | -48.47759 | 19379 ft | 406 kts | 349° |
| 2026-04-15 21:38 | -26.96526 | -48.48272 | 19987 ft | 410 kts | 349° |
| 2026-04-15 21:38 | -26.93707 | -48.48785 | 20599 ft | 413 kts | 349° |
| 2026-04-15 21:39 | -26.90880 | -48.49298 | 21176 ft | 417 kts | 349° |
| 2026-04-15 21:39 | -26.87959 | -48.49827 | 21760 ft | 421 kts | 349° |
| 2026-04-15 21:39 | -26.85043 | -48.50354 | 22361 ft | 424 kts | 349° |
| 2026-04-15 21:39 | -26.82107 | -48.50885 | 22935 ft | 428 kts | 349° |
| 2026-04-15 21:40 | -26.79115 | -48.51429 | 23484 ft | 432 kts | 349° |
| 2026-04-15 21:40 | -26.76134 | -48.51968 | 24032 ft | 436 kts | 349° |
| 2026-04-15 21:40 | -26.73152 | -48.52507 | 24568 ft | 440 kts | 349° |
| 2026-04-15 21:40 | -26.70110 | -48.53055 | 25117 ft | 443 kts | 349° |
| 2026-04-15 21:41 | -26.67039 | -48.53610 | 25634 ft | 447 kts | 349° |
| 2026-04-15 21:41 | -26.63942 | -48.54169 | 26137 ft | 451 kts | 349° |
| 2026-04-15 21:41 | -26.60832 | -48.54730 | 26632 ft | 455 kts | 349° |
| 2026-04-15 21:41 | -26.57670 | -48.55299 | 27138 ft | 459 kts | 349° |
| 2026-04-15 21:42 | -26.54490 | -48.55872 | 27626 ft | 462 kts | 349° |
| 2026-04-15 21:42 | -26.51295 | -48.56447 | 28098 ft | 466 kts | 349° |
| 2026-04-15 21:42 | -26.48062 | -48.57027 | 28561 ft | 470 kts | 349° |
| 2026-04-15 21:42 | -26.44811 | -48.57483 | 28994 ft | 475 kts | 352° |
| 2026-04-15 21:43 | -26.41492 | -48.57732 | 29461 ft | 480 kts | 356° |
| 2026-04-15 21:43 | -26.38128 | -48.57755 | 30056 ft | 481 kts | 359° |
| 2026-04-15 21:43 | -26.34780 | -48.57552 | 30820 ft | 478 kts | 3° |
| 2026-04-15 21:43 | -26.31502 | -48.57191 | 31595 ft | 473 kts | 4° |
| 2026-04-15 21:44 | -26.28255 | -48.56817 | 32327 ft | 470 kts | 4° |
| 2026-04-15 21:44 | -26.24999 | -48.56444 | 33045 ft | 466 kts | 4° |
| 2026-04-15 21:44 | -26.21781 | -48.56079 | 33761 ft | 465 kts | 4° |
| 2026-04-15 21:44 | -26.18560 | -48.55717 | 34368 ft | 464 kts | 4° |
| 2026-04-15 21:45 | -26.15323 | -48.55351 | 34926 ft | 465 kts | 4° |
| 2026-04-15 21:45 | -26.12100 | -48.54991 | 35454 ft | 466 kts | 4° |
| 2026-04-15 21:45 | -26.08879 | -48.54628 | 35893 ft | 467 kts | 4° |
| 2026-04-15 21:45 | -26.05619 | -48.54263 | 36241 ft | 470 kts | 4° |
| 2026-04-15 21:46 | -26.02330 | -48.53893 | 36576 ft | 473 kts | 4° |
| 2026-04-15 21:46 | -25.99040 | -48.53524 | 36897 ft | 476 kts | 4° |
| 2026-04-15 21:46 | -25.95703 | -48.53149 | 37037 ft | 480 kts | 4° |
| 2026-04-15 21:47 | -25.89043 | -48.52401 | 37033 ft | 481 kts | 4° |
| 2026-04-15 21:47 | -25.82339 | -48.51649 | 37037 ft | 481 kts | 4° |
| 2026-04-15 21:48 | -25.75646 | -48.50903 | 37034 ft | 481 kts | 4° |
| 2026-04-15 21:48 | -25.69001 | -48.50159 | 37034 ft | 481 kts | 4° |
| 2026-04-15 21:49 | -25.62260 | -48.49404 | 37029 ft | 482 kts | 4° |
| 2026-04-15 21:49 | -25.55588 | -48.48660 | 37034 ft | 481 kts | 4° |
| 2026-04-15 21:50 | -25.48917 | -48.47915 | 37035 ft | 482 kts | 4° |
| 2026-04-15 21:50 | -25.42256 | -48.47174 | 37030 ft | 482 kts | 4° |
| 2026-04-15 21:51 | -25.35543 | -48.46427 | 37030 ft | 482 kts | 5° |
| 2026-04-15 21:51 | -25.28822 | -48.45676 | 37029 ft | 483 kts | 5° |
| 2026-04-15 21:52 | -25.22107 | -48.44928 | 37033 ft | 483 kts | 5° |
| 2026-04-15 21:52 | -25.15447 | -48.44188 | 37048 ft | 482 kts | 5° |
| 2026-04-15 21:53 | -25.08750 | -48.43458 | 37067 ft | 483 kts | 4° |
| 2026-04-15 21:53 | -25.02043 | -48.42769 | 37077 ft | 482 kts | 4° |
| 2026-04-15 21:53 | -24.98699 | -48.42426 | 36833 ft | 477 kts | 4° |
| 2026-04-15 21:54 | -24.95431 | -48.42090 | 36276 ft | 475 kts | 4° |
| 2026-04-15 21:54 | -24.92119 | -48.41750 | 35717 ft | 472 kts | 4° |
| 2026-04-15 21:54 | -24.88841 | -48.41411 | 35230 ft | 468 kts | 5° |
| 2026-04-15 21:54 | -24.85621 | -48.41080 | 34681 ft | 465 kts | 4° |
| 2026-04-15 21:55 | -24.82398 | -48.40747 | 34049 ft | 464 kts | 4° |
| 2026-04-15 21:55 | -24.79172 | -48.40415 | 33395 ft | 463 kts | 4° |
| 2026-04-15 21:55 | -24.75963 | -48.40084 | 32742 ft | 462 kts | 4° |
| 2026-04-15 21:55 | -24.72755 | -48.39753 | 32126 ft | 462 kts | 4° |
| 2026-04-15 21:56 | -24.69557 | -48.39423 | 31395 ft | 464 kts | 4° |
| 2026-04-15 21:56 | -24.66316 | -48.39091 | 30554 ft | 469 kts | 4° |
| 2026-04-15 21:56 | -24.63017 | -48.38751 | 29642 ft | 475 kts | 4° |
| 2026-04-15 21:56 | -24.59739 | -48.38414 | 28748 ft | 481 kts | 4° |
| 2026-04-15 21:57 | -24.56380 | -48.38070 | 28128 ft | 478 kts | 4° |
| 2026-04-15 21:57 | -24.53087 | -48.37732 | 27672 ft | 473 kts | 4° |
| 2026-04-15 21:57 | -24.49794 | -48.37395 | 27174 ft | 468 kts | 4° |
| 2026-04-15 21:57 | -24.46538 | -48.37060 | 26647 ft | 465 kts | 4° |
| 2026-04-15 21:58 | -24.43323 | -48.36732 | 26131 ft | 461 kts | 4° |
| 2026-04-15 21:58 | -24.40100 | -48.36401 | 25613 ft | 457 kts | 4° |
| 2026-04-15 21:58 | -24.36976 | -48.36081 | 25117 ft | 453 kts | 3° |
| 2026-04-15 21:58 | -24.33829 | -48.35760 | 24618 ft | 449 kts | 3° |
| 2026-04-15 21:59 | -24.30725 | -48.35442 | 24131 ft | 445 kts | 3° |
| 2026-04-15 21:59 | -24.27615 | -48.35126 | 23631 ft | 441 kts | 3° |
| 2026-04-15 21:59 | -24.24547 | -48.34813 | 23135 ft | 437 kts | 3° |
| 2026-04-15 21:59 | -24.21508 | -48.34503 | 22640 ft | 433 kts | 3° |
| 2026-04-15 22:00 | -24.18542 | -48.34200 | 22164 ft | 430 kts | 3° |
| 2026-04-15 22:00 | -24.15570 | -48.33898 | 21670 ft | 426 kts | 3° |
| 2026-04-15 22:00 | -24.12622 | -48.33596 | 21182 ft | 423 kts | 3° |
| 2026-04-15 22:00 | -24.09690 | -48.33299 | 20683 ft | 420 kts | 3° |
| 2026-04-15 22:01 | -24.06787 | -48.32933 | 20167 ft | 418 kts | 10° |
| 2026-04-15 22:01 | -24.04071 | -48.31704 | 19593 ft | 420 kts | 33° |
| 2026-04-15 22:01 | -24.01849 | -48.29684 | 19166 ft | 416 kts | 40° |
| 2026-04-15 22:01 | -23.99694 | -48.27562 | 18704 ft | 413 kts | 40° |
| 2026-04-15 22:02 | -23.97533 | -48.25463 | 18214 ft | 410 kts | 40° |
| 2026-04-15 22:02 | -23.95380 | -48.23422 | 17749 ft | 406 kts | 40° |
| 2026-04-15 22:02 | -23.93246 | -48.21436 | 17308 ft | 403 kts | 39° |
| 2026-04-15 22:02 | -23.91102 | -48.19465 | 16853 ft | 399 kts | 39° |
| 2026-04-15 22:03 | -23.88948 | -48.17499 | 16381 ft | 397 kts | 39° |
| 2026-04-15 22:03 | -23.86830 | -48.15573 | 15918 ft | 394 kts | 39° |
| 2026-04-15 22:03 | -23.84747 | -48.13684 | 15461 ft | 391 kts | 39° |
| 2026-04-15 22:03 | -23.82638 | -48.11776 | 15000 ft | 388 kts | 39° |
| 2026-04-15 22:04 | -23.80559 | -48.09900 | 14533 ft | 385 kts | 40° |
| 2026-04-15 22:04 | -23.78491 | -48.08034 | 14050 ft | 383 kts | 40° |
| 2026-04-15 22:04 | -23.76459 | -48.06204 | 13566 ft | 381 kts | 40° |
| 2026-04-15 22:04 | -23.74405 | -48.04351 | 13081 ft | 379 kts | 40° |
| 2026-04-15 22:05 | -23.72358 | -48.02504 | 12602 ft | 377 kts | 40° |
| 2026-04-15 22:05 | -23.70340 | -48.00685 | 12142 ft | 374 kts | 40° |
| 2026-04-15 22:05 | -23.68340 | -47.98882 | 11673 ft | 371 kts | 40° |
| 2026-04-15 22:05 | -23.66361 | -47.97099 | 11195 ft | 367 kts | 40° |
| 2026-04-15 22:06 | -23.64409 | -47.95343 | 10227 ft | 362 kts | 40° |
| 2026-04-15 22:06 | -23.62487 | -47.93616 | 9657 ft | 345 kts | 40° |
| 2026-04-15 22:06 | -23.60771 | -47.92075 | 9558 ft | 317 kts | 40° |
| 2026-04-15 22:06 | -23.59153 | -47.90620 | 9570 ft | 297 kts | 40° |
| 2026-04-15 22:07 | -23.57535 | -47.89167 | 9602 ft | 295 kts | 40° |
| 2026-04-15 22:07 | -23.55960 | -47.87751 | 9372 ft | 291 kts | 41° |
| 2026-04-15 22:07 | -23.54371 | -47.86322 | 8994 ft | 291 kts | 40° |
| 2026-04-15 22:07 | -23.52820 | -47.84929 | 8676 ft | 289 kts | 41° |
| 2026-04-15 22:08 | -23.51264 | -47.83531 | 8371 ft | 286 kts | 40° |
| 2026-04-15 22:08 | -23.49716 | -47.82143 | 8060 ft | 284 kts | 40° |
| 2026-04-15 22:08 | -23.48199 | -47.80783 | 7750 ft | 281 kts | 40° |
| 2026-04-15 22:08 | -23.46683 | -47.79425 | 7440 ft | 279 kts | 40° |
| 2026-04-15 22:09 | -23.45172 | -47.78070 | 7113 ft | 278 kts | 40° |
| 2026-04-15 22:09 | -23.43676 | -47.76732 | 6797 ft | 276 kts | 40° |
| 2026-04-15 22:09 | -23.42187 | -47.75399 | 6582 ft | 272 kts | 40° |
| 2026-04-15 22:09 | -23.40724 | -47.74089 | 6567 ft | 274 kts | 40° |
| 2026-04-15 22:10 | -23.39246 | -47.72766 | 6566 ft | 274 kts | 40° |
| 2026-04-15 22:10 | -23.37754 | -47.71431 | 6563 ft | 274 kts | 40° |
| 2026-04-15 22:10 | -23.36283 | -47.70115 | 6558 ft | 274 kts | 40° |
| 2026-04-15 22:10 | -23.34806 | -47.68797 | 6558 ft | 274 kts | 40° |
| 2026-04-15 22:11 | -23.33323 | -47.67471 | 6559 ft | 274 kts | 40° |
| 2026-04-15 22:11 | -23.31851 | -47.66154 | 6556 ft | 274 kts | 40° |
| 2026-04-15 22:11 | -23.30371 | -47.64832 | 6558 ft | 274 kts | 40° |
| 2026-04-15 22:11 | -23.28882 | -47.63503 | 6556 ft | 274 kts | 40° |
| 2026-04-15 22:12 | -23.27414 | -47.62194 | 6555 ft | 274 kts | 40° |
| 2026-04-15 22:12 | -23.25927 | -47.60867 | 6556 ft | 275 kts | 40° |
| 2026-04-15 22:12 | -23.24441 | -47.59539 | 6558 ft | 275 kts | 40° |
| 2026-04-15 22:12 | -23.22964 | -47.58222 | 6558 ft | 275 kts | 40° |
| 2026-04-15 22:13 | -23.21475 | -47.56894 | 6554 ft | 276 kts | 41° |
| 2026-04-15 22:13 | -23.19995 | -47.55576 | 6556 ft | 275 kts | 41° |
| 2026-04-15 22:13 | -23.18498 | -47.54242 | 6557 ft | 275 kts | 41° |
| 2026-04-15 22:13 | -23.17023 | -47.52925 | 6555 ft | 276 kts | 40° |
| 2026-04-15 22:14 | -23.15519 | -47.51585 | 6559 ft | 276 kts | 40° |
| 2026-04-15 22:14 | -23.14030 | -47.50261 | 6551 ft | 275 kts | 40° |
| 2026-04-15 22:14 | -23.12567 | -47.48959 | 6543 ft | 269 kts | 40° |
| 2026-04-15 22:14 | -23.11141 | -47.47691 | 6543 ft | 255 kts | 40° |
| 2026-04-15 22:15 | -23.09816 | -47.46514 | 6541 ft | 241 kts | 41° |
| 2026-04-15 22:15 | -23.08540 | -47.45379 | 6539 ft | 227 kts | 41° |
| 2026-04-15 22:15 | -23.07334 | -47.44307 | 6552 ft | 222 kts | 41° |
| 2026-04-15 22:15 | -23.06140 | -47.43244 | 6587 ft | 222 kts | 41° |
| 2026-04-15 22:16 | -23.04943 | -47.42178 | 6567 ft | 221 kts | 41° |
| 2026-04-15 22:16 | -23.03741 | -47.41110 | 6561 ft | 221 kts | 41° |
| 2026-04-15 22:16 | -23.02545 | -47.40047 | 6563 ft | 222 kts | 41° |
| 2026-04-15 22:16 | -23.01347 | -47.38981 | 6563 ft | 222 kts | 41° |
| 2026-04-15 22:17 | -23.00159 | -47.37924 | 6560 ft | 222 kts | 41° |
| 2026-04-15 22:17 | -22.98951 | -47.36854 | 6564 ft | 222 kts | 41° |
| 2026-04-15 22:17 | -22.97747 | -47.35788 | 6546 ft | 219 kts | 41° |
| 2026-04-15 22:17 | -22.96557 | -47.34784 | 6303 ft | 214 kts | 39° |
| 2026-04-15 22:18 | -22.95399 | -47.33816 | 6073 ft | 209 kts | 39° |
| 2026-04-15 22:18 | -22.94247 | -47.32854 | 5766 ft | 208 kts | 39° |
| 2026-04-15 22:18 | -22.93084 | -47.31885 | 5445 ft | 208 kts | 39° |
| 2026-04-15 22:18 | -22.91937 | -47.30928 | 5130 ft | 207 kts | 39° |
| 2026-04-15 22:19 | -22.90904 | -47.29868 | 4805 ft | 202 kts | 61° |
| 2026-04-15 22:19 | -22.90627 | -47.28444 | 4582 ft | 191 kts | 98° |
| 2026-04-15 22:19 | -22.91066 | -47.27124 | 4441 ft | 187 kts | 119° |
| 2026-04-15 22:19 | -22.91792 | -47.25937 | 4443 ft | 188 kts | 127° |
| 2026-04-15 22:20 | -22.92596 | -47.24817 | 4355 ft | 189 kts | 128° |
| 2026-04-15 22:20 | -22.93416 | -47.23699 | 4122 ft | 187 kts | 128° |
| 2026-04-15 22:20 | -22.94200 | -47.22615 | 3880 ft | 176 kts | 128° |
| 2026-04-15 22:20 | -22.94926 | -47.21597 | 3656 ft | 165 kts | 127° |
| 2026-04-15 22:21 | -22.95613 | -47.20631 | 3450 ft | 156 kts | 127° |
| 2026-04-15 22:21 | -22.96276 | -47.19701 | 3264 ft | 153 kts | 128° |
| 2026-04-15 22:21 | -22.96924 | -47.18792 | 3082 ft | 152 kts | 128° |
| 2026-04-15 22:21 | -22.97578 | -47.17875 | 2889 ft | 153 kts | 128° |
| 2026-04-15 22:22 | -22.98231 | -47.16961 | 2695 ft | 153 kts | 129° |
| 2026-04-15 22:22 | -22.98878 | -47.16055 | 2500 ft | 154 kts | 129° |
| 2026-04-15 22:22 | -22.99533 | -47.15130 | 2301 ft | 155 kts | 129° |
| 2026-04-15 22:22 | -23.00193 | -47.14233 | 2187 ft | 140 kts | 124° |
| 2026-04-15 22:23 | -23.00647 | -47.13581 | 2188 ft | 82 kts | 129° |
| 2026-04-15 22:23 | -23.00951 | -47.13159 | 2188 ft | 68 kts | 127° |
| 2026-04-15 22:23 | -23.01163 | -47.12888 | 2189 ft | 40 kts | 145° |
| 2026-04-15 22:23 | -23.01352 | -47.12794 | 2189 ft | 0 kts | 169° |
| 2026-04-15 22:26 | -23.01356 | -47.12794 | 2189 ft | 1 kts | 169° |
| 2026-04-15 22:27 | -23.01379 | -47.12793 | 2189 ft | 4 kts | 189° |
| 2026-04-15 22:27 | -23.01392 | -47.12814 | 2189 ft | 4 kts | 263° |
| 2026-04-15 22:27 | -23.01383 | -47.12859 | 2189 ft | 7 kts | 294° |
| 2026-04-15 22:27 | -23.01349 | -47.12920 | 2189 ft | 11 kts | 306° |
| 2026-04-15 22:28 | -23.01297 | -47.12993 | 2188 ft | 12 kts | 308° |
| 2026-04-15 22:28 | -23.01239 | -47.13073 | 2188 ft | 14 kts | 308° |
| 2026-04-15 22:28 | -23.01171 | -47.13165 | 2188 ft | 16 kts | 308° |
| 2026-04-15 22:28 | -23.01097 | -47.13268 | 2188 ft | 17 kts | 308° |
| 2026-04-15 22:29 | -23.01018 | -47.13379 | 2188 ft | 19 kts | 307° |
| 2026-04-15 22:29 | -23.00933 | -47.13499 | 2188 ft | 20 kts | 307° |
| 2026-04-15 22:29 | -23.00842 | -47.13626 | 2188 ft | 21 kts | 307° |
| 2026-04-15 22:29 | -23.00751 | -47.13761 | 2187 ft | 22 kts | 301° |
| 2026-04-15 22:30 | -23.00701 | -47.13928 | 2187 ft | 24 kts | 278° |
| 2026-04-15 22:30 | -23.00628 | -47.14088 | 2187 ft | 24 kts | 310° |
| 2026-04-15 22:30 | -23.00518 | -47.14240 | 2187 ft | 25 kts | 307° |
| 2026-04-15 22:30 | -23.00405 | -47.14399 | 2187 ft | 21 kts | 308° |
| 2026-04-15 22:31 | -23.00375 | -47.14438 | 2186 ft | 6 kts | 310° |
| 2026-04-15 22:31 | -23.00365 | -47.14468 | 2186 ft | 4 kts | 253° |
| 2026-04-15 22:31 | -23.00392 | -47.14507 | 2186 ft | 8 kts | 225° |
| 2026-04-15 22:31 | -23.00427 | -47.14542 | 2186 ft | 0 kts | 221° |